Time;durP1;ratioP1;P1;durP2;ratioP2;P2;SDS_P1;SDS_P2;PMS_P1;PMS_P2;Temp;Humidity;BMP_temperature;BMP_pressure;BME280_temperature;BME280_humidity;BME280_pressure;Samples;Min_cycle;Max_cycle;Signal;HPM_P1;HPM_P2
2023/03/24 00:00:01;;;;;;;14.27;8.88;;;;;;;2.33;72.91;63960.56;5071280;28;20499;-75
2023/03/24 00:02:28;;;;;;;15.10;9.13;;;;;;;2.22;73.50;63948.88;5071232;28;20398;-75
2023/03/24 00:04:57;;;;;;;17.67;8.98;;;;;;;2.12;73.73;63937.72;5071515;28;20044;-75
2023/03/24 00:07:23;;;;;;;;;;;;;;;2.13;73.73;63939.38;5071700;28;20046;-75
2023/03/24 00:09:49;;;;;;;13.23;8.23;;;;;;;1.97;74.12;63936.66;5071173;28;20367;-77
2023/03/24 00:12:18;;;;;;;17.83;9.93;;;;;;;1.97;74.20;63921.53;5054276;28;20040;-76
2023/03/24 00:14:47;;;;;;;13.38;8.40;;;;;;;1.88;74.61;63912.06;5105012;28;20111;-77
2023/03/24 00:17:16;;;;;;;20.35;9.52;;;;;;;1.86;74.03;63909.25;5088005;28;20102;-75
2023/03/24 00:19:44;;;;;;;17.55;9.30;;;;;;;1.86;73.96;63909.25;5072218;28;20049;-76
2023/03/24 00:22:13;;;;;;;20.67;10.15;;;;;;;1.85;74.37;63908.69;5104792;28;20090;-77
2023/03/24 00:24:40;;;;;;;18.77;9.68;;;;;;;1.85;74.32;63908.16;5054397;28;20040;-76
2023/03/24 00:27:06;;;;;;;17.00;10.10;;;;;;;1.82;74.41;63904.78;5070792;28;20152;-76
2023/03/24 00:29:32;;;;;;;18.60;10.38;;;;;;;1.84;74.32;63907.00;5056802;28;20398;-76
2023/03/24 00:31:58;;;;;;;15.48;9.68;;;;;;;1.78;74.17;63900.34;5074356;28;20131;-76
2023/03/24 00:34:24;;;;;;;15.05;9.88;;;;;;;1.74;74.57;63895.88;5074523;28;20037;-76
2023/03/24 00:36:50;;;;;;;17.40;9.88;;;;;;;1.68;75.28;63890.28;5057843;28;20144;-76
2023/03/24 00:39:18;;;;;;;16.73;10.23;;;;;;;1.77;74.98;63899.19;5057819;28;20063;-76
2023/03/24 00:41:46;;;;;;;15.00;9.98;;;;;;;1.83;74.67;63905.91;5074167;28;20044;-77
2023/03/24 00:44:17;;;;;;;20.88;12.13;;;;;;;1.84;74.72;63907.59;5074395;28;20396;-79
2023/03/24 00:46:45;;;;;;;14.60;10.10;;;;;;;1.80;74.69;63902.56;5074502;28;20040;-77
2023/03/24 00:49:11;;;;;;;15.57;10.10;;;;;;;1.80;74.67;63902.56;5057332;28;20036;-75
2023/03/24 00:51:40;;;;;;;23.38;10.48;;;;;;;1.79;75.11;63902.00;5074166;28;20548;-77
2023/03/24 00:54:09;;;;;;;19.02;10.25;;;;;;;1.75;75.05;63896.97;5057371;28;20033;-77
2023/03/24 00:56:38;;;;;;;16.92;10.32;;;;;;;1.80;75.09;63902.56;5075417;28;20142;-77
2023/03/24 00:59:05;;;;;;;17.15;10.65;;;;;;;1.82;75.09;63904.78;5075150;28;20457;-76
2023/03/24 01:01:34;;;;;;;17.45;10.43;;;;;;;1.86;75.29;63909.81;5040693;28;20067;-77
2023/03/24 01:04:01;;;;;;;19.02;10.80;;;;;;;1.90;74.99;63914.28;5075361;28;20094;-77
2023/03/24 01:06:27;;;;;;;15.95;10.48;;;;;;;1.97;75.17;63920.97;5073853;28;20051;-77
2023/03/24 01:08:53;;;;;;;14.95;10.45;;;;;;;1.99;75.56;63923.75;5039896;28;20032;-76
2023/03/24 01:11:24;;;;;;;18.00;9.55;;;;;;;2.03;75.12;63928.22;5073991;28;20071;-76
2023/03/24 01:13:53;;;;;;;16.48;9.80;;;;;;;2.08;75.12;63933.81;5057103;28;20118;-78
2023/03/24 01:16:19;;;;;;;14.95;10.40;;;;;;;2.05;74.97;63929.91;5073857;28;20487;-76
2023/03/24 01:18:45;;;;;;;16.73;9.85;;;;;;;2.04;75.10;63944.47;5057115;28;20483;-76
2023/03/24 01:21:11;;;;;;;18.55;10.23;;;;;;;2.11;75.02;63937.16;5074898;28;20131;-77
2023/03/24 01:23:40;;;;;;;17.60;10.20;;;;;;;2.12;74.95;63953.94;5040557;28;20044;-77
2023/03/24 01:26:08;;;;;;;21.60;10.95;;;;;;;2.06;75.30;63931.56;5073744;28;20491;-77
2023/03/24 01:28:39;;;;;;;21.27;11.23;;;;;;;2.02;75.26;63942.78;5056755;28;20056;-76
2023/03/24 01:31:07;;;;;;;23.55;10.95;;;;;;;2.09;75.29;63934.91;5056521;28;20052;-77
2023/03/24 01:33:35;;;;;;;20.80;11.73;;;;;;;2.12;75.06;63938.25;5056125;28;20086;-77
2023/03/24 01:36:01;;;;;;;24.77;11.40;;;;;;;2.13;75.22;63938.81;5072534;28;20139;-77
2023/03/24 01:38:27;;;;;;;25.23;12.38;;;;;;;2.11;75.19;63936.59;5073596;28;20041;-80
2023/03/24 01:40:54;;;;;;;16.10;10.88;;;;;;;2.08;75.48;63933.81;5055527;28;20055;-77
2023/03/24 01:43:31;;;;;;;17.90;11.73;;;;;;;2.09;75.47;63934.34;5073323;28;20044;-76
2023/03/24 01:45:57;;;;;;;18.30;11.02;;;;;;;2.11;75.25;63936.59;5073269;28;20044;-76
2023/03/24 01:48:52;;;;;;;18.05;11.55;;;;;;;2.11;75.81;63952.84;5074122;28;20055;-76
2023/03/24 01:51:34;;;;;;;18.60;11.70;;;;;;;2.12;76.38;63938.25;5038229;28;20415;-76
2023/03/24 01:54:08;;;;;;;20.13;11.80;;;;;;;2.10;76.45;63936.03;5056406;28;20040;-77
2023/03/24 01:56:38;;;;;;;21.92;12.60;;;;;;;2.15;76.08;63941.63;5056291;28;20063;-77
2023/03/24 01:59:14;;;;;;;23.17;12.73;;;;;;;2.16;76.06;63942.16;5072940;28;20060;-76
2023/03/24 02:02:05;;;;;;;21.50;12.23;;;;;;;2.09;76.56;63934.91;5073128;28;20036;-76
2023/03/24 02:05:01;;;;;;;23.98;12.50;;;;;;;2.16;76.29;63942.72;5070931;28;20045;-77
2023/03/24 02:07:53;;;;;;;23.52;12.00;;;;;;;2.17;76.22;63943.28;5057661;28;20091;-76
2023/03/24 02:10:22;;;;;;;23.10;10.55;;;;;;;2.16;76.20;63942.16;5056123;28;20063;-76
2023/03/24 02:12:48;;;;;;;17.30;11.30;;;;;;;2.14;76.57;63940.50;5039226;28;20151;-76
2023/03/24 02:15:17;;;;;;;19.17;11.00;;;;;;;2.10;76.91;63935.47;5072327;28;20773;-76
2023/03/24 02:17:59;;;;;;;17.63;9.80;;;;;;;2.16;76.61;63942.72;5055958;28;20044;-76
2023/03/24 02:21:06;;;;;;;27.15;10.73;;;;;;;2.22;76.58;63948.31;5074337;28;20185;-76
2023/03/24 02:23:57;;;;;;;19.10;10.07;;;;;;;2.23;76.39;63949.44;5020527;28;20086;-77
2023/03/24 02:26:52;;;;;;;19.75;10.38;;;;;;;2.28;75.84;63971.25;5072326;28;20495;-77
2023/03/24 02:29:52;;;;;;;18.92;10.23;;;;;;;2.27;76.22;63953.91;5072581;28;20045;-76
2023/03/24 02:32:52;;;;;;;16.90;10.95;;;;;;;2.31;76.08;63974.03;5061666;28;20056;-76
2023/03/24 02:35:21;;;;;;;19.63;11.68;;;;;;;2.37;75.97;63980.72;5077023;28;20053;-76
2023/03/24 02:38:06;;;;;;;18.02;10.85;;;;;;;2.39;75.93;63967.28;5055070;28;20526;-77
2023/03/24 02:40:54;;;;;;;24.73;10.50;;;;;;;2.43;75.79;63971.75;5055409;28;20051;-76
2023/03/24 02:43:37;;;;;;;18.90;11.50;;;;;;;2.41;75.87;63969.53;5055377;28;20047;-76
2023/03/24 02:46:24;;;;;;;18.13;10.77;;;;;;;2.50;75.73;63979.00;5038489;28;20043;-77
2023/03/24 02:49:20;;;;;;;21.63;10.77;;;;;;;2.54;75.23;63983.47;5073369;28;20060;-77
2023/03/24 02:51:55;;;;;;;19.42;11.18;;;;;;;2.58;75.56;63988.50;5051275;28;20063;-76
2023/03/24 02:54:39;;;;;;;21.17;10.32;;;;;;;2.61;75.83;63991.28;5072851;28;20426;-74
2023/03/24 02:57:36;;;;;;;26.50;10.82;;;;;;;2.72;75.17;64003.00;5055185;28;20033;-76
2023/03/24 03:00:21;;;;;;;23.77;11.50;;;;;;;2.76;75.31;64008.03;5073046;28;20487;-83
2023/03/24 03:03:23;;;;;;;26.55;11.13;;;;;;;2.89;74.69;64022.53;5071543;28;20568;-76
2023/03/24 03:06:01;;;;;;;18.20;10.25;;;;;;;2.96;74.83;64029.81;5071584;28;20041;-77
2023/03/24 03:08:32;;;;;;;15.40;10.25;;;;;;;2.94;74.35;64027.59;5055288;28;20479;-82
2023/03/24 03:11:02;;;;;;;25.13;11.30;;;;;;;2.93;74.19;64026.44;5055005;28;20036;-85
2023/03/24 03:13:38;;;;;;;24.08;11.13;;;;;;;2.99;73.79;64033.16;5082838;28;20521;-81
2023/03/24 03:16:27;;;;;;;17.15;10.68;;;;;;;2.96;73.92;64029.81;5074571;28;20047;-80
2023/03/24 03:19:11;;;;;;;20.35;10.73;;;;;;;3.13;74.06;64048.25;5094003;28;20071;-79
2023/03/24 03:21:43;;;;;;;17.33;10.25;;;;;;;3.17;73.67;64053.28;5075894;28;20130;-83
2023/03/24 03:24:18;;;;;;;14.52;10.50;;;;;;;3.25;73.56;64061.66;5092189;28;20070;-79
2023/03/24 03:26:47;;;;;;;18.15;11.35;;;;;;;3.16;73.54;64051.59;5091993;28;20093;-78
2023/03/24 03:29:20;;;;;;;22.77;11.65;;;;;;;3.33;73.85;64070.03;5058540;28;20388;-78
2023/03/24 03:32:06;;;;;;;25.33;12.13;;;;;;;3.40;73.46;64077.84;5091746;28;20044;-78
2023/03/24 03:34:48;;;;;;;24.00;12.70;;;;;;;3.55;73.19;64094.59;5073735;28;20089;-80
2023/03/24 03:37:23;;;;;;;27.75;14.02;;;;;;;3.65;72.87;64105.78;5078756;28;20406;-78
2023/03/24 03:39:56;;;;;;;24.02;14.82;;;;;;;3.76;72.93;64116.97;5058015;28;20101;-83
2023/03/24 03:42:23;;;;;;;35.20;18.77;;;;;;;3.94;72.65;64137.09;5092697;28;20055;-78
2023/03/24 03:44:49;;;;;;;51.33;21.73;;;;;;;4.06;72.44;64149.94;5072156;28;20044;-77
2023/03/24 03:47:15;;;;;;;32.75;17.42;;;;;;;4.20;72.07;64165.03;5071227;28;20046;-78
2023/03/24 03:49:45;;;;;;;32.53;18.73;;;;;;;4.25;71.42;64170.63;5071297;28;20127;-78
2023/03/24 03:52:12;;;;;;;36.17;20.33;;;;;;;4.37;71.64;64184.63;5082866;28;20078;-80
2023/03/24 03:54:40;;;;;;;39.25;20.50;;;;;;;4.50;71.28;64198.59;5074478;28;20044;-79
2023/03/24 03:57:07;;;;;;;45.33;21.90;;;;;;;4.59;70.99;64208.13;5091413;28;20439;-82
2023/03/24 04:00:10;;;;;;;41.00;19.30;;;;;;;4.75;70.43;64225.44;5074278;28;20499;-79
2023/03/24 04:02:39;;;;;;;35.65;20.23;;;;;;;4.82;70.36;64233.84;5090349;28;20052;-79
2023/03/24 04:05:12;;;;;;;36.10;19.52;;;;;;;4.95;70.21;64247.81;5066718;28;20070;-79
2023/03/24 04:08:14;;;;;;;31.95;17.75;;;;;;;4.96;69.54;64248.94;5065402;28;20441;-79
2023/03/24 04:11:04;;;;;;;26.98;16.33;;;;;;;5.07;69.40;64260.69;5079702;28;20135;-79
2023/03/24 04:13:44;;;;;;;33.50;15.93;;;;;;;5.11;69.24;64265.75;5078090;28;20056;-80
2023/03/24 04:16:57;;;;;;;27.33;15.75;;;;;;;5.23;69.45;64278.06;5094547;28;20044;-81
2023/03/24 04:19:32;;;;;;;23.70;14.63;;;;;;;5.34;68.47;64290.34;5041536;28;20085;-81
2023/03/24 04:22:05;;;;;;;38.78;17.00;;;;;;;5.40;68.14;64297.09;5042292;28;20073;-89
2023/03/24 04:24:48;;;;;;;40.63;16.77;;;;;;;5.56;68.09;64314.44;5092152;28;20047;-79
2023/03/24 04:27:37;;;;;;;33.25;17.15;;;;;;;5.54;67.82;64312.19;5089772;28;20178;-81
2023/03/24 04:30:21;;;;;;;27.40;17.50;;;;;;;5.49;67.44;64306.59;5061188;28;20028;-81
2023/03/24 04:32:57;;;;;;;36.75;18.92;;;;;;;5.67;67.19;64326.75;5083900;28;20041;-80
2023/03/24 04:35:33;;;;;;;32.47;18.38;;;;;;;5.75;67.26;64335.16;5051103;28;20123;-79
2023/03/24 04:38:26;;;;;;;30.05;16.38;;;;;;;5.90;66.83;64351.94;5080237;28;20040;-81
2023/03/24 04:41:07;;;;;;;40.85;17.23;;;;;;;5.98;66.66;64360.94;5094168;28;20036;-79
2023/03/24 04:43:35;;;;;;;37.38;17.70;;;;;;;6.22;66.80;64387.28;5060839;28;20130;-81
2023/03/24 04:46:05;;;;;;;34.47;18.13;;;;;;;6.26;65.95;64391.19;5077077;28;20421;-80
2023/03/24 04:48:57;;;;;;;35.55;17.80;;;;;;;6.23;65.62;64387.84;5081723;28;20104;-79
2023/03/24 04:51:33;;;;;;;34.15;18.02;;;;;;;6.32;65.48;64398.50;5078309;28;20043;-79
2023/03/24 04:54:04;;;;;;;28.58;18.52;;;;;;;6.37;65.12;64402.97;5111362;28;20101;-78
2023/03/24 04:56:46;;;;;;;37.92;18.45;;;;;;;6.24;65.31;64388.94;5093687;28;20491;-80
2023/03/24 04:59:20;;;;;;;37.75;17.10;;;;;;;6.25;65.02;64390.09;5080130;28;20048;-79
2023/03/24 05:01:49;;;;;;;26.60;15.48;;;;;;;6.30;65.23;64395.69;5095287;28;20043;-79
2023/03/24 05:04:23;;;;;;;23.02;15.00;;;;;;;6.29;65.09;64394.56;5095577;28;20491;-79
2023/03/24 05:06:50;;;;;;;30.52;14.10;;;;;;;6.18;64.89;64382.22;5059985;28;20123;-79
2023/03/24 05:09:20;;;;;;;23.27;13.73;;;;;;;6.06;65.16;64369.34;5060368;28;20093;-78
2023/03/24 05:11:46;;;;;;;28.33;13.57;;;;;;;6.05;65.31;64368.78;5089718;28;20071;-77
2023/03/24 05:14:13;;;;;;;28.13;14.48;;;;;;;6.14;66.24;64378.31;5065492;28;20060;-77
2023/03/24 05:16:39;;;;;;;24.48;13.35;;;;;;;6.51;65.52;64419.22;5040258;28;20102;-79
2023/03/24 05:19:06;;;;;;;28.75;14.55;;;;;;;6.66;64.79;64434.91;5075104;28;20499;-80
2023/03/24 05:21:35;;;;;;;23.30;13.15;;;;;;;6.64;64.34;64432.66;5090861;28;20043;-79
2023/03/24 05:24:02;;;;;;;19.08;13.25;;;;;;;6.62;64.53;64430.41;5072938;28;20040;-82
2023/03/24 05:26:29;;;;;;;29.90;13.95;;;;;;;6.55;64.32;64423.16;5102814;28;20415;-81
2023/03/24 05:29:07;;;;;;;;;;;;;;;6.67;64.09;64436.03;5058165;28;20052;-79
2023/03/24 05:31:34;;;;;;;18.10;12.05;;;;;;;6.71;63.83;64440.50;5056453;28;19920;-82
2023/03/24 05:34:11;;;;;;;20.52;12.10;;;;;;;6.63;63.80;64432.09;5077968;28;20055;-82
2023/03/24 05:36:49;;;;;;;23.30;12.60;;;;;;;6.69;63.97;64438.25;5058603;28;20055;-80
2023/03/24 05:39:18;;;;;;;21.60;12.07;;;;;;;6.78;63.60;64448.94;5063566;28;20043;-79
2023/03/24 05:41:52;;;;;;;29.50;12.60;;;;;;;6.89;63.85;64460.69;5093767;28;20096;-80
2023/03/24 05:44:18;;;;;;;24.10;13.50;;;;;;;7.00;64.00;64472.47;5057490;28;20036;-81
2023/03/24 05:46:56;;;;;;;24.88;13.45;;;;;;;7.13;63.50;64487.06;5059574;28;20496;-80
2023/03/24 05:49:22;;;;;;;34.83;13.95;;;;;;;7.33;63.35;64508.34;5074724;28;20131;-79
2023/03/24 05:51:48;;;;;;;27.95;13.85;;;;;;;7.47;63.02;64524.63;5091748;28;20119;-80
2023/03/24 05:54:14;;;;;;;25.70;13.88;;;;;;;7.63;62.68;64541.44;5092251;28;20643;-79
2023/03/24 05:56:42;;;;;;;24.73;14.25;;;;;;;7.79;62.12;64559.44;5075858;28;20055;-79
2023/03/24 05:59:14;;;;;;;34.38;15.15;;;;;;;7.93;61.63;64574.56;5077010;28;20063;-80
2023/03/24 06:02:02;;;;;;;;;;;;;;;8.14;61.30;64598.16;5078591;28;20044;-78
2023/03/24 06:04:45;;;;;;;29.83;17.77;;;;;;;8.18;61.11;64602.06;5076207;28;19916;-79
2023/03/24 06:07:15;;;;;;;44.33;20.98;;;;;;;8.29;60.72;64614.44;5075803;28;20044;-79
2023/03/24 06:09:49;;;;;;;45.10;21.93;;;;;;;8.39;60.77;64625.69;5094293;28;20054;-80
2023/03/24 06:12:16;;;;;;;40.90;20.60;;;;;;;8.43;60.54;64629.63;5075579;28;20086;-79
2023/03/24 06:14:52;;;;;;;39.40;20.45;;;;;;;8.47;60.57;64634.09;5076940;28;20491;-80
2023/03/24 06:17:20;;;;;;;38.22;18.27;;;;;;;8.48;60.43;64635.78;5092342;28;20169;-79
2023/03/24 06:19:52;;;;;;;33.17;18.08;;;;;;;8.53;60.77;64640.81;5076000;28;20517;-79
2023/03/24 06:22:41;;;;;;;32.60;17.75;;;;;;;8.63;60.63;64651.50;5092478;28;20055;-79
2023/03/24 06:25:11;;;;;;;40.00;17.50;;;;;;;8.90;60.40;64681.28;5092636;28;20047;-80
2023/03/24 06:27:44;;;;;;;43.53;17.83;;;;;;;9.00;59.62;64693.06;5090305;28;20084;-87
2023/03/24 06:30:16;;;;;;;36.95;15.85;;;;;;;9.17;59.61;64711.59;5064903;28;20048;-80
2023/03/24 06:32:45;;;;;;;31.05;16.63;;;;;;;9.24;59.19;64719.47;5087732;28;20043;-80
2023/03/24 06:35:15;;;;;;;40.03;17.05;;;;;;;9.41;59.16;64737.47;5092378;28;20055;-80
2023/03/24 06:37:56;;;;;;;35.55;16.38;;;;;;;9.53;58.68;64750.41;5057393;28;20130;-81
2023/03/24 06:40:22;;;;;;;29.52;16.20;;;;;;;9.59;58.55;64757.13;5071012;28;20135;-80
2023/03/24 06:42:53;;;;;;;34.45;16.15;;;;;;;9.74;58.54;64774.00;5037423;28;20051;-81
2023/03/24 06:45:19;;;;;;;35.33;15.23;;;;;;;9.85;58.50;64785.81;5037747;28;20073;-83
2023/03/24 06:47:47;;;;;;;31.05;16.30;;;;;;;9.92;58.13;64794.25;5070886;28;20047;-81
2023/03/24 06:50:13;;;;;;;30.95;14.98;;;;;;;10.03;57.86;64806.06;5071089;28;20135;-80
2023/03/24 06:52:40;;;;;;;26.73;14.48;;;;;;;10.20;57.69;64825.19;5071068;28;20041;-80
2023/03/24 06:55:08;;;;;;;29.92;14.73;;;;;;;10.36;57.19;64842.63;5071195;28;20036;-79
2023/03/24 06:57:34;;;;;;;30.38;14.20;;;;;;;10.22;56.71;64826.88;5072974;28;20052;-79
2023/03/24 07:00:20;;;;;;;31.35;13.95;;;;;;;10.23;57.53;64828.00;5070892;28;20052;-80
2023/03/24 07:02:56;;;;;;;24.55;14.02;;;;;;;10.16;57.38;64820.69;5071787;28;20052;-80
2023/03/24 07:05:22;;;;;;;32.85;14.43;;;;;;;10.29;57.50;64834.19;5055057;28;20037;-81
2023/03/24 07:07:49;;;;;;;41.28;13.70;;;;;;;10.46;57.12;64853.34;5071749;28;20483;-80
2023/03/24 07:10:35;;;;;;;28.60;12.73;;;;;;;10.65;56.42;64874.72;5057520;28;20052;-79
2023/03/24 07:13:02;;;;;;;28.50;13.27;;;;;;;10.77;56.57;64887.09;5071552;28;20176;-80
2023/03/24 07:15:29;;;;;;;27.48;12.45;;;;;;;10.90;56.14;64901.72;5054740;28;20605;-81
2023/03/24 07:17:56;;;;;;;22.23;12.43;;;;;;;10.96;55.78;64907.91;5038548;28;20119;-82
2023/03/24 07:20:48;;;;;;;26.92;13.02;;;;;;;10.97;55.62;64909.59;5071872;28;20044;-83
2023/03/24 07:23:19;;;;;;;28.42;13.07;;;;;;;11.10;55.64;64923.69;5038575;28;20150;-80
2023/03/24 07:25:56;;;;;;;29.83;13.38;;;;;;;11.26;55.73;64941.69;5072254;28;20068;-81
2023/03/24 07:28:40;;;;;;;28.63;12.55;;;;;;;11.43;55.19;64960.84;5071505;28;20499;-81
2023/03/24 07:31:09;;;;;;;35.55;14.73;;;;;;;11.59;55.37;64977.75;5038173;28;20052;-80
2023/03/24 07:33:37;;;;;;;24.85;12.27;;;;;;;11.78;54.96;64998.59;5054605;28;20048;-81
2023/03/24 07:36:04;;;;;;;24.58;12.00;;;;;;;11.95;54.74;65017.75;5038013;28;20033;-80
2023/03/24 07:38:30;;;;;;;29.13;11.25;;;;;;;12.08;54.11;65032.41;5071683;28;20105;-79
2023/03/24 07:41:05;;;;;;;17.35;9.35;;;;;;;12.02;54.54;65025.63;5045366;28;20044;-86
2023/03/24 07:43:35;;;;;;;12.98;8.40;;;;;;;12.12;54.61;65036.34;5065203;28;20064;-84
2023/03/24 07:46:15;;;;;;;15.23;7.07;;;;;;;12.61;57.30;65090.47;5094287;28;20039;-85
2023/03/24 07:48:41;;;;;;;16.15;6.68;;;;;;;13.15;55.82;65149.66;5095698;28;20131;-85
2023/03/24 07:51:07;;;;;;;21.63;7.88;;;;;;;13.62;54.47;65201.59;5061798;28;20040;-82
2023/03/24 07:53:56;;;;;;;20.80;6.72;;;;;;;14.07;52.55;65252.38;5069598;28;20059;-82
2023/03/24 07:56:42;;;;;;;19.13;7.68;;;;;;;14.54;51.89;65303.78;5075341;28;20083;-81
2023/03/24 07:59:10;;;;;;;13.05;7.45;;;;;;;14.47;49.24;65295.84;5058605;28;20036;-81
2023/03/24 08:02:03;;;;;;;19.80;7.65;;;;;;;14.30;49.90;65277.78;5074239;28;20084;-79
2023/03/24 08:04:45;;;;;;;17.60;7.50;;;;;;;14.40;49.47;65288.50;5058753;28;20048;-78
2023/03/24 08:07:52;;;;;;;19.00;7.45;;;;;;;14.08;49.15;65252.94;5053907;28;20044;-81
2023/03/24 08:10:24;;;;;;;15.77;7.65;;;;;;;14.05;49.13;65250.13;5062854;28;20056;-78
2023/03/24 08:12:50;;;;;;;19.33;6.88;;;;;;;14.00;49.18;65244.47;5053030;28;20113;-80
2023/03/24 08:15:16;;;;;;;24.77;7.25;;;;;;;13.80;49.93;65222.47;5094826;28;20036;-78
2023/03/24 08:17:43;;;;;;;22.83;7.35;;;;;;;13.74;50.36;65215.13;5100250;28;20050;-88
2023/03/24 08:20:13;;;;;;;18.33;7.32;;;;;;;13.72;50.60;65213.44;5119259;28;20131;-79
2023/03/24 08:22:41;;;;;;;21.77;7.35;;;;;;;13.70;50.67;65210.63;5092367;28;20048;-79
2023/03/24 08:25:09;;;;;;;26.20;7.85;;;;;;;13.56;50.39;65195.38;5076897;28;20051;-77
2023/03/24 08:27:39;;;;;;;21.52;7.30;;;;;;;13.33;50.85;65170.00;5074593;28;20052;-79
2023/03/24 08:30:12;;;;;;;18.70;6.90;;;;;;;13.26;50.97;65162.66;5057778;28;20040;-77
2023/03/24 08:32:43;;;;;;;19.40;7.93;;;;;;;13.32;51.17;65169.44;5057081;28;20043;-79
2023/03/24 08:35:13;;;;;;;25.23;7.47;;;;;;;13.44;50.75;65181.84;5074442;28;20123;-77
2023/03/24 08:37:43;;;;;;;13.15;6.18;;;;;;;13.49;50.81;65187.47;5075527;28;20399;-80
2023/03/24 08:40:16;;;;;;;16.08;6.32;;;;;;;13.54;50.32;65193.13;5057375;28;20051;-79
2023/03/24 08:42:42;;;;;;;23.20;6.70;;;;;;;13.64;50.31;65204.41;5073882;28;20052;-79
2023/03/24 08:45:11;;;;;;;29.13;7.00;;;;;;;13.69;50.10;65209.47;5056902;28;20032;-77
2023/03/24 08:47:37;;;;;;;20.90;6.63;;;;;;;13.62;50.13;65202.16;5073984;28;20044;-79
2023/03/24 08:50:04;;;;;;;19.55;6.20;;;;;;;13.69;49.97;65210.06;5072740;28;20079;-80
2023/03/24 08:52:30;;;;;;;23.65;7.32;;;;;;;13.53;49.75;65192.00;5074695;28;20056;-80
2023/03/24 08:54:56;;;;;;;15.63;6.93;;;;;;;13.36;49.74;65173.38;5040625;28;20037;-83
2023/03/24 08:57:22;;;;;;;24.17;6.68;;;;;;;13.56;50.09;65195.94;5056860;28;20063;-77
2023/03/24 08:59:48;;;;;;;22.73;6.47;;;;;;;13.51;49.19;65189.75;5056691;28;20117;-78
2023/03/24 09:02:14;;;;;;;11.35;6.22;;;;;;;13.55;49.10;65194.25;5073773;28;20097;-77
2023/03/24 09:04:41;;;;;;;24.38;6.28;;;;;;;13.57;49.44;65196.50;5081642;28;20044;-76
2023/03/24 09:07:08;;;;;;;18.95;6.45;;;;;;;13.55;48.83;65194.81;5073066;28;20499;-79
2023/03/24 09:09:34;;;;;;;15.23;6.10;;;;;;;13.49;49.20;65188.03;5083952;28;20048;-80
2023/03/24 09:12:00;;;;;;;19.52;6.50;;;;;;;13.40;48.38;65177.34;5093428;28;20051;-78
2023/03/24 09:14:26;;;;;;;14.00;6.40;;;;;;;13.68;48.57;65208.91;5093850;28;20032;-78
2023/03/24 09:16:52;;;;;;;13.40;6.28;;;;;;;13.81;48.53;65223.59;5076699;28;20491;-77
2023/03/24 09:19:18;;;;;;;21.00;7.05;;;;;;;13.71;47.87;65212.31;5072279;28;20036;-77
2023/03/24 09:21:45;;;;;;;14.02;6.22;;;;;;;13.92;47.54;65235.47;5073200;28;20044;-78
2023/03/24 09:24:11;;;;;;;16.67;6.00;;;;;;;14.15;47.99;65260.28;5081069;28;20134;-77
2023/03/24 09:26:37;;;;;;;24.42;6.72;;;;;;;14.32;47.03;65279.47;5092866;28;20413;-75
2023/03/24 09:29:03;;;;;;;20.70;6.07;;;;;;;14.44;46.71;65292.47;5075398;28;20056;-77
2023/03/24 09:31:29;;;;;;;27.10;6.60;;;;;;;14.59;46.58;65309.44;5091949;28;20380;-77
2023/03/24 09:33:55;;;;;;;14.77;6.50;;;;;;;14.58;46.36;65308.31;5093532;28;20048;-76
2023/03/24 09:36:21;;;;;;;14.95;6.18;;;;;;;14.46;46.45;65295.28;5091930;28;20562;-76
2023/03/24 09:38:47;;;;;;;18.13;5.93;;;;;;;14.57;46.05;65307.75;5092453;28;20109;-78
2023/03/24 09:41:28;;;;;;;27.88;7.75;;;;;;;14.69;45.72;65320.72;5108935;28;20038;-77
2023/03/24 09:43:56;;;;;;;14.85;5.45;;;;;;;14.63;45.87;65313.38;5090656;28;20407;-76
2023/03/24 09:46:32;;;;;;;15.60;5.30;;;;;;;14.65;45.23;65316.22;5075161;28;20048;-77
2023/03/24 09:48:58;;;;;;;14.85;4.82;;;;;;;14.54;45.01;65304.34;5089506;28;20040;-76
2023/03/24 09:51:26;;;;;;;13.23;4.97;;;;;;;14.74;45.28;65326.38;5108486;28;20388;-77
2023/03/24 09:54:31;;;;;;;14.20;4.65;;;;;;;14.89;44.59;65342.19;5054716;28;20037;-77
2023/03/24 09:56:58;;;;;;;13.32;5.00;;;;;;;14.84;44.70;65336.53;5056186;28;20044;-77
2023/03/24 09:59:27;;;;;;;15.75;5.00;;;;;;;15.03;44.40;65358.00;5055678;28;20040;-77
2023/03/24 10:01:52;;;;;;;11.70;6.03;;;;;;;15.07;44.21;65362.53;5082285;28;20517;-78
2023/03/24 10:04:21;;;;;;;11.85;5.45;;;;;;;15.12;43.90;65368.19;5089920;28;20111;-79
2023/03/24 10:06:52;;;;;;;15.35;5.10;;;;;;;15.33;43.60;65391.34;5056668;28;20500;-78
2023/03/24 10:09:32;;;;;;;15.57;5.22;;;;;;;15.46;43.01;65405.50;5085949;28;20122;-78
2023/03/24 10:12:22;;;;;;;33.22;5.28;;;;;;;15.68;42.01;65429.81;5089726;28;20078;-76
2023/03/24 10:15:07;;;;;;;14.15;4.38;;;;;;;15.77;41.53;65440.56;5108214;28;20388;-77
2023/03/24 10:17:34;;;;;;;12.63;4.40;;;;;;;15.83;42.03;65446.22;5090838;28;20043;-78
2023/03/24 10:20:14;;;;;;;10.73;4.10;;;;;;;15.72;41.41;65434.34;5090741;28;20043;-77
2023/03/24 10:22:52;;;;;;;15.95;3.97;;;;;;;15.84;41.37;65447.34;5090122;28;20047;-78
2023/03/24 10:25:41;;;;;;;11.00;4.45;;;;;;;15.98;41.10;65463.75;5055349;28;20040;-75
2023/03/24 10:28:13;;;;;;;8.10;3.65;;;;;;;16.00;40.66;65465.44;5090996;28;20055;-76
2023/03/24 10:30:42;;;;;;;13.18;3.97;;;;;;;16.01;40.50;65467.13;5071748;28;20040;-77
2023/03/24 10:33:13;;;;;;;14.05;4.10;;;;;;;16.20;40.36;65488.06;5090648;28;20038;-78
2023/03/24 10:36:05;;;;;;;10.93;3.63;;;;;;;16.42;39.98;65512.38;5088983;28;20048;-77
2023/03/24 10:38:31;;;;;;;12.27;4.25;;;;;;;16.55;39.58;65525.94;5090186;28;20028;-76
2023/03/24 10:40:58;;;;;;;11.15;4.43;;;;;;;16.75;39.58;65549.19;5090669;28;20067;-77
2023/03/24 10:43:26;;;;;;;11.05;4.50;;;;;;;16.82;38.97;65556.53;5103288;28;20367;-77
2023/03/24 10:45:55;;;;;;;12.65;4.20;;;;;;;17.11;38.47;65588.22;5087718;28;20414;-75
2023/03/24 10:48:42;;;;;;;7.38;3.63;;;;;;;16.85;38.54;65559.94;5084182;28;20127;-78
2023/03/24 10:51:15;;;;;;;13.40;4.05;;;;;;;16.97;38.83;65573.53;5087787;28;20047;-77
2023/03/24 10:53:42;;;;;;;13.13;4.22;;;;;;;17.24;38.13;65603.53;5081756;28;20046;-77
2023/03/24 10:56:15;;;;;;;14.45;4.75;;;;;;;17.34;37.74;65613.69;5091516;28;20047;-78
2023/03/24 10:58:42;;;;;;;14.65;4.45;;;;;;;17.18;37.70;65596.72;5091748;28;20047;-78
2023/03/24 11:01:23;;;;;;;10.57;3.97;;;;;;;17.11;37.80;65588.81;5090415;28;20036;-76
2023/03/24 11:03:49;;;;;;;10.65;3.97;;;;;;;17.14;37.56;65592.19;5070991;28;20139;-76
2023/03/24 11:06:20;;;;;;;13.80;4.10;;;;;;;17.02;37.75;65578.63;5087013;28;20465;-76
2023/03/24 11:08:46;;;;;;;14.55;4.00;;;;;;;17.27;37.87;65605.78;5101568;28;20135;-75
2023/03/24 11:11:30;;;;;;;10.75;4.10;;;;;;;17.33;37.44;65612.56;5090191;28;20048;-75
2023/03/24 11:14:00;;;;;;;16.33;4.05;;;;;;;17.60;36.92;65643.16;5085996;28;20050;-75
2023/03/24 11:16:28;;;;;;;10.30;4.03;;;;;;;17.71;36.66;65655.63;5068483;28;20503;-77
2023/03/24 11:18:57;;;;;;;10.13;4.20;;;;;;;17.75;36.68;65659.59;5091404;28;20574;-76
2023/03/24 11:21:26;;;;;;;8.45;3.63;;;;;;;17.78;36.67;65663.00;5081784;28;20530;-77
2023/03/24 11:23:52;;;;;;;13.35;4.18;;;;;;;17.86;36.48;65671.50;5073327;28;20077;-76
2023/03/24 11:26:28;;;;;;;12.07;3.70;;;;;;;17.99;36.38;65686.22;5073180;28;20128;-75
2023/03/24 11:28:57;;;;;;;10.10;3.78;;;;;;;17.79;37.01;65663.56;5056575;28;20189;-77
2023/03/24 11:31:29;;;;;;;11.98;3.47;;;;;;;18.17;36.33;65706.63;5080635;28;20043;-76
2023/03/24 11:34:18;;;;;;;13.38;3.72;;;;;;;18.35;35.79;65726.44;5099581;28;20040;-76
2023/03/24 11:37:12;;;;;;;12.05;3.50;;;;;;;18.62;34.66;65756.50;5053461;28;20036;-75
2023/03/24 11:39:38;;;;;;;22.42;3.95;;;;;;;18.33;35.27;65724.19;5063123;28;20040;-77
2023/03/24 11:42:10;;;;;;;13.25;3.90;;;;;;;18.09;35.16;65697.56;5106609;28;20101;-76
2023/03/24 11:44:50;;;;;;;7.82;3.80;;;;;;;18.23;35.66;65712.28;5089286;28;20066;-76
2023/03/24 11:47:34;;;;;;;16.67;3.33;;;;;;;18.30;35.21;65720.22;5071951;28;20058;-76
2023/03/24 11:50:05;;;;;;;14.27;4.03;;;;;;;18.47;34.74;65739.50;5090102;28;20052;-76
2023/03/24 11:52:38;;;;;;;9.98;3.42;;;;;;;18.45;34.92;65737.22;5086916;28;20044;-77
2023/03/24 11:55:17;;;;;;;15.95;3.70;;;;;;;18.50;34.48;65742.31;5068180;28;20045;-78